sensor_id;sensor_type;location;lat;lon;timestamp;P1;durP1;ratioP1;P2;durP2;ratioP2
5285;SDS011;2665;53.112;7.358;2023-01-09T00:01:26;2.70;;;1.07;;
5285;SDS011;2665;53.112;7.358;2023-01-09T00:03:54;5.10;;;0.80;;
5285;SDS011;2665;53.112;7.358;2023-01-09T00:06:19;5.37;;;1.10;;
5285;SDS011;2665;53.112;7.358;2023-01-09T00:08:45;1.90;;;0.93;;
5285;SDS011;2665;53.112;7.358;2023-01-09T00:11:11;2.17;;;1.00;;
5285;SDS011;2665;53.112;7.358;2023-01-09T00:13:36;2.97;;;0.87;;
5285;SDS011;2665;53.112;7.358;2023-01-09T00:16:06;2.40;;;0.90;;
5285;SDS011;2665;53.112;7.358;2023-01-09T00:18:32;2.20;;;0.90;;
5285;SDS011;2665;53.112;7.358;2023-01-09T00:20:59;2.33;;;0.97;;
5285;SDS011;2665;53.112;7.358;2023-01-09T00:23:28;3.07;;;1.00;;
5285;SDS011;2665;53.112;7.358;2023-01-09T00:26:08;2.17;;;0.90;;
5285;SDS011;2665;53.112;7.358;2023-01-09T00:28:36;2.10;;;0.60;;
5285;SDS011;2665;53.112;7.358;2023-01-09T00:31:03;5.30;;;1.27;;
5285;SDS011;2665;53.112;7.358;2023-01-09T00:33:49;8.00;;;1.10;;
5285;SDS011;2665;53.112;7.358;2023-01-09T00:36:17;2.83;;;0.90;;
5285;SDS011;2665;53.112;7.358;2023-01-09T00:38:42;4.13;;;0.90;;
5285;SDS011;2665;53.112;7.358;2023-01-09T00:41:09;7.50;;;1.33;;
5285;SDS011;2665;53.112;7.358;2023-01-09T00:43:39;4.60;;;1.20;;
5285;SDS011;2665;53.112;7.358;2023-01-09T00:46:09;2.23;;;0.83;;
5285;SDS011;2665;53.112;7.358;2023-01-09T00:48:36;1.80;;;0.80;;
5285;SDS011;2665;53.112;7.358;2023-01-09T00:51:04;2.00;;;0.80;;
5285;SDS011;2665;53.112;7.358;2023-01-09T00:53:32;2.27;;;0.80;;
5285;SDS011;2665;53.112;7.358;2023-01-09T00:56:00;2.13;;;1.00;;
5285;SDS011;2665;53.112;7.358;2023-01-09T00:58:28;2.93;;;0.93;;
5285;SDS011;2665;53.112;7.358;2023-01-09T01:00:56;2.00;;;0.90;;
5285;SDS011;2665;53.112;7.358;2023-01-09T01:03:22;1.90;;;0.90;;
5285;SDS011;2665;53.112;7.358;2023-01-09T01:05:47;2.10;;;0.70;;
5285;SDS011;2665;53.112;7.358;2023-01-09T01:08:31;3.70;;;0.90;;
5285;SDS011;2665;53.112;7.358;2023-01-09T01:10:57;2.93;;;1.00;;
5285;SDS011;2665;53.112;7.358;2023-01-09T01:13:22;9.87;;;1.20;;
5285;SDS011;2665;53.112;7.358;2023-01-09T01:15:48;3.20;;;1.30;;
5285;SDS011;2665;53.112;7.358;2023-01-09T01:18:13;2.37;;;0.73;;
5285;SDS011;2665;53.112;7.358;2023-01-09T01:20:40;2.30;;;1.10;;
5285;SDS011;2665;53.112;7.358;2023-01-09T01:23:06;2.37;;;0.87;;
5285;SDS011;2665;53.112;7.358;2023-01-09T01:25:34;3.57;;;1.50;;
5285;SDS011;2665;53.112;7.358;2023-01-09T01:28:04;2.10;;;0.73;;
5285;SDS011;2665;53.112;7.358;2023-01-09T01:30:30;1.90;;;0.83;;
5285;SDS011;2665;53.112;7.358;2023-01-09T01:32:56;2.20;;;1.00;;
5285;SDS011;2665;53.112;7.358;2023-01-09T01:35:22;2.30;;;1.10;;
5285;SDS011;2665;53.112;7.358;2023-01-09T01:37:48;2.23;;;1.10;;
5285;SDS011;2665;53.112;7.358;2023-01-09T01:40:14;2.97;;;1.20;;
5285;SDS011;2665;53.112;7.358;2023-01-09T01:42:47;6.23;;;1.47;;
5285;SDS011;2665;53.112;7.358;2023-01-09T01:45:15;2.93;;;1.20;;
5285;SDS011;2665;53.112;7.358;2023-01-09T01:50:51;3.30;;;1.13;;
5285;SDS011;2665;53.112;7.358;2023-01-09T01:58:42;1.97;;;0.87;;
5285;SDS011;2665;53.112;7.358;2023-01-09T02:01:29;2.97;;;1.10;;
5285;SDS011;2665;53.112;7.358;2023-01-09T02:03:56;1.80;;;0.93;;
5285;SDS011;2665;53.112;7.358;2023-01-09T02:06:22;2.10;;;1.10;;
5285;SDS011;2665;53.112;7.358;2023-01-09T02:08:49;4.17;;;1.00;;
5285;SDS011;2665;53.112;7.358;2023-01-09T02:11:16;1.90;;;0.83;;
5285;SDS011;2665;53.112;7.358;2023-01-09T02:13:43;4.47;;;1.10;;
5285;SDS011;2665;53.112;7.358;2023-01-09T02:32:44;2.10;;;0.80;;
5285;SDS011;2665;53.112;7.358;2023-01-09T02:38:35;1.70;;;0.60;;
5285;SDS011;2665;53.112;7.358;2023-01-09T02:41:24;2.80;;;0.80;;
5285;SDS011;2665;53.112;7.358;2023-01-09T02:44:16;1.70;;;0.70;;
5285;SDS011;2665;53.112;7.358;2023-01-09T02:46:59;3.23;;;0.87;;
5285;SDS011;2665;53.112;7.358;2023-01-09T02:49:25;2.10;;;0.90;;
5285;SDS011;2665;53.112;7.358;2023-01-09T02:51:52;2.60;;;1.00;;
5285;SDS011;2665;53.112;7.358;2023-01-09T02:54:34;3.80;;;1.17;;
5285;SDS011;2665;53.112;7.358;2023-01-09T03:00:04;2.70;;;0.80;;
5285;SDS011;2665;53.112;7.358;2023-01-09T03:02:47;1.77;;;0.77;;
5285;SDS011;2665;53.112;7.358;2023-01-09T03:05:35;2.93;;;1.20;;
5285;SDS011;2665;53.112;7.358;2023-01-09T03:08:18;1.80;;;0.93;;
5285;SDS011;2665;53.112;7.358;2023-01-09T03:10:48;2.33;;;1.20;;
5285;SDS011;2665;53.112;7.358;2023-01-09T03:13:28;2.30;;;1.00;;
5285;SDS011;2665;53.112;7.358;2023-01-09T03:15:58;1.80;;;0.90;;
5285;SDS011;2665;53.112;7.358;2023-01-09T03:18:27;2.33;;;1.27;;
5285;SDS011;2665;53.112;7.358;2023-01-09T03:20:56;3.20;;;1.37;;
5285;SDS011;2665;53.112;7.358;2023-01-09T03:23:22;3.80;;;1.70;;
5285;SDS011;2665;53.112;7.358;2023-01-09T03:25:48;3.30;;;1.27;;
5285;SDS011;2665;53.112;7.358;2023-01-09T03:28:20;2.67;;;1.40;;
5285;SDS011;2665;53.112;7.358;2023-01-09T03:30:52;2.40;;;1.17;;
5285;SDS011;2665;53.112;7.358;2023-01-09T03:33:18;2.67;;;1.57;;
5285;SDS011;2665;53.112;7.358;2023-01-09T03:35:44;3.30;;;1.40;;
5285;SDS011;2665;53.112;7.358;2023-01-09T03:38:09;2.90;;;1.40;;
5285;SDS011;2665;53.112;7.358;2023-01-09T03:40:35;2.27;;;1.30;;
5285;SDS011;2665;53.112;7.358;2023-01-09T03:43:01;2.30;;;1.40;;
5285;SDS011;2665;53.112;7.358;2023-01-09T03:45:26;3.50;;;1.40;;
5285;SDS011;2665;53.112;7.358;2023-01-09T03:47:52;2.60;;;1.57;;
5285;SDS011;2665;53.112;7.358;2023-01-09T03:50:18;3.07;;;1.60;;
5285;SDS011;2665;53.112;7.358;2023-01-09T03:52:43;3.37;;;1.73;;
5285;SDS011;2665;53.112;7.358;2023-01-09T03:55:09;2.80;;;1.70;;
5285;SDS011;2665;53.112;7.358;2023-01-09T03:57:35;3.10;;;1.93;;
5285;SDS011;2665;53.112;7.358;2023-01-09T04:00:00;3.33;;;1.90;;
5285;SDS011;2665;53.112;7.358;2023-01-09T04:02:27;2.60;;;1.63;;
5285;SDS011;2665;53.112;7.358;2023-01-09T04:04:52;2.37;;;1.57;;
5285;SDS011;2665;53.112;7.358;2023-01-09T04:07:18;3.40;;;2.17;;
5285;SDS011;2665;53.112;7.358;2023-01-09T04:09:43;8.77;;;1.60;;
5285;SDS011;2665;53.112;7.358;2023-01-09T04:12:09;2.93;;;1.40;;
5285;SDS011;2665;53.112;7.358;2023-01-09T04:14:34;2.30;;;1.63;;
5285;SDS011;2665;53.112;7.358;2023-01-09T04:17:00;8.43;;;2.53;;
5285;SDS011;2665;53.112;7.358;2023-01-09T04:19:26;6.03;;;1.50;;
5285;SDS011;2665;53.112;7.358;2023-01-09T04:21:51;2.70;;;1.37;;
5285;SDS011;2665;53.112;7.358;2023-01-09T04:24:17;3.63;;;1.57;;
5285;SDS011;2665;53.112;7.358;2023-01-09T04:26:43;3.03;;;1.53;;
5285;SDS011;2665;53.112;7.358;2023-01-09T04:29:08;2.13;;;1.30;;
5285;SDS011;2665;53.112;7.358;2023-01-09T04:31:34;4.47;;;1.63;;
5285;SDS011;2665;53.112;7.358;2023-01-09T04:33:59;2.03;;;1.17;;
5285;SDS011;2665;53.112;7.358;2023-01-09T04:36:25;2.00;;;1.10;;
5285;SDS011;2665;53.112;7.358;2023-01-09T04:38:50;2.37;;;1.27;;
5285;SDS011;2665;53.112;7.358;2023-01-09T04:41:16;2.37;;;1.33;;
5285;SDS011;2665;53.112;7.358;2023-01-09T04:44:02;2.40;;;1.40;;
5285;SDS011;2665;53.112;7.358;2023-01-09T04:46:28;2.10;;;1.10;;
5285;SDS011;2665;53.112;7.358;2023-01-09T04:48:53;2.00;;;1.07;;
5285;SDS011;2665;53.112;7.358;2023-01-09T04:51:19;3.60;;;1.40;;
5285;SDS011;2665;53.112;7.358;2023-01-09T04:53:45;4.53;;;1.67;;
5285;SDS011;2665;53.112;7.358;2023-01-09T04:56:10;2.53;;;1.63;;
5285;SDS011;2665;53.112;7.358;2023-01-09T04:58:36;2.33;;;1.40;;
5285;SDS011;2665;53.112;7.358;2023-01-09T05:01:01;2.60;;;1.80;;
5285;SDS011;2665;53.112;7.358;2023-01-09T05:03:27;2.50;;;1.67;;
5285;SDS011;2665;53.112;7.358;2023-01-09T05:05:53;5.57;;;2.20;;
5285;SDS011;2665;53.112;7.358;2023-01-09T05:08:18;8.03;;;1.80;;
5285;SDS011;2665;53.112;7.358;2023-01-09T05:10:44;2.80;;;1.27;;
5285;SDS011;2665;53.112;7.358;2023-01-09T05:13:09;2.73;;;1.47;;
5285;SDS011;2665;53.112;7.358;2023-01-09T05:15:35;5.17;;;1.57;;
5285;SDS011;2665;53.112;7.358;2023-01-09T05:18:00;3.40;;;1.67;;
5285;SDS011;2665;53.112;7.358;2023-01-09T05:20:26;6.90;;;1.60;;
5285;SDS011;2665;53.112;7.358;2023-01-09T05:22:51;8.30;;;2.53;;
5285;SDS011;2665;53.112;7.358;2023-01-09T05:25:17;4.40;;;1.50;;
5285;SDS011;2665;53.112;7.358;2023-01-09T05:27:43;4.30;;;1.83;;
5285;SDS011;2665;53.112;7.358;2023-01-09T05:30:10;4.17;;;1.97;;
5285;SDS011;2665;53.112;7.358;2023-01-09T05:32:37;3.27;;;2.03;;
5285;SDS011;2665;53.112;7.358;2023-01-09T05:35:03;3.33;;;1.53;;
5285;SDS011;2665;53.112;7.358;2023-01-09T05:37:28;6.50;;;2.30;;
5285;SDS011;2665;53.112;7.358;2023-01-09T05:39:54;3.87;;;2.40;;
5285;SDS011;2665;53.112;7.358;2023-01-09T05:42:20;3.33;;;1.90;;
5285;SDS011;2665;53.112;7.358;2023-01-09T05:44:45;3.53;;;2.23;;
5285;SDS011;2665;53.112;7.358;2023-01-09T05:47:11;3.87;;;2.30;;
5285;SDS011;2665;53.112;7.358;2023-01-09T05:49:37;3.70;;;2.20;;
5285;SDS011;2665;53.112;7.358;2023-01-09T05:52:02;8.30;;;2.70;;
5285;SDS011;2665;53.112;7.358;2023-01-09T05:54:29;6.10;;;2.70;;
5285;SDS011;2665;53.112;7.358;2023-01-09T05:56:54;3.67;;;2.40;;
5285;SDS011;2665;53.112;7.358;2023-01-09T05:59:20;5.30;;;2.90;;
5285;SDS011;2665;53.112;7.358;2023-01-09T06:01:46;9.03;;;3.03;;
5285;SDS011;2665;53.112;7.358;2023-01-09T06:04:11;11.47;;;2.97;;
5285;SDS011;2665;53.112;7.358;2023-01-09T06:06:37;4.40;;;3.00;;
5285;SDS011;2665;53.112;7.358;2023-01-09T06:09:04;6.70;;;3.50;;
5285;SDS011;2665;53.112;7.358;2023-01-09T06:11:29;4.53;;;2.73;;
5285;SDS011;2665;53.112;7.358;2023-01-09T06:13:55;4.20;;;3.17;;
5285;SDS011;2665;53.112;7.358;2023-01-09T06:16:20;6.83;;;3.70;;
5285;SDS011;2665;53.112;7.358;2023-01-09T06:18:46;5.23;;;3.20;;
5285;SDS011;2665;53.112;7.358;2023-01-09T06:21:12;5.37;;;3.20;;
5285;SDS011;2665;53.112;7.358;2023-01-09T06:23:38;6.53;;;3.87;;
5285;SDS011;2665;53.112;7.358;2023-01-09T06:26:03;4.70;;;3.50;;
5285;SDS011;2665;53.112;7.358;2023-01-09T06:28:29;6.80;;;3.60;;
5285;SDS011;2665;53.112;7.358;2023-01-09T06:30:54;5.70;;;3.60;;
5285;SDS011;2665;53.112;7.358;2023-01-09T06:33:20;7.73;;;3.97;;
5285;SDS011;2665;53.112;7.358;2023-01-09T06:35:46;6.43;;;3.83;;
5285;SDS011;2665;53.112;7.358;2023-01-09T06:38:11;7.53;;;4.50;;
5285;SDS011;2665;53.112;7.358;2023-01-09T06:40:37;6.50;;;4.47;;
5285;SDS011;2665;53.112;7.358;2023-01-09T06:43:03;6.03;;;3.57;;
5285;SDS011;2665;53.112;7.358;2023-01-09T06:45:28;6.73;;;4.03;;
5285;SDS011;2665;53.112;7.358;2023-01-09T06:47:54;6.00;;;3.77;;
5285;SDS011;2665;53.112;7.358;2023-01-09T06:50:20;5.40;;;3.80;;
5285;SDS011;2665;53.112;7.358;2023-01-09T06:52:45;9.57;;;3.80;;
5285;SDS011;2665;53.112;7.358;2023-01-09T06:55:11;5.93;;;4.03;;
5285;SDS011;2665;53.112;7.358;2023-01-09T06:57:37;7.50;;;4.07;;
5285;SDS011;2665;53.112;7.358;2023-01-09T07:00:03;5.60;;;3.37;;
5285;SDS011;2665;53.112;7.358;2023-01-09T07:02:28;4.70;;;3.70;;
5285;SDS011;2665;53.112;7.358;2023-01-09T07:04:54;4.43;;;2.80;;
5285;SDS011;2665;53.112;7.358;2023-01-09T07:07:20;6.50;;;3.87;;
5285;SDS011;2665;53.112;7.358;2023-01-09T07:09:46;6.40;;;4.23;;
5285;SDS011;2665;53.112;7.358;2023-01-09T07:12:12;5.63;;;3.53;;
5285;SDS011;2665;53.112;7.358;2023-01-09T07:14:39;13.73;;;4.20;;
5285;SDS011;2665;53.112;7.358;2023-01-09T07:17:05;7.67;;;4.00;;
5285;SDS011;2665;53.112;7.358;2023-01-09T07:19:31;7.73;;;3.93;;
5285;SDS011;2665;53.112;7.358;2023-01-09T07:21:56;8.37;;;3.40;;
5285;SDS011;2665;53.112;7.358;2023-01-09T07:24:22;8.73;;;3.80;;
5285;SDS011;2665;53.112;7.358;2023-01-09T07:26:48;16.73;;;4.00;;
5285;SDS011;2665;53.112;7.358;2023-01-09T07:29:13;7.60;;;4.30;;
5285;SDS011;2665;53.112;7.358;2023-01-09T07:31:39;7.80;;;4.40;;
5285;SDS011;2665;53.112;7.358;2023-01-09T07:34:04;7.47;;;3.37;;
5285;SDS011;2665;53.112;7.358;2023-01-09T07:36:30;4.67;;;3.47;;
5285;SDS011;2665;53.112;7.358;2023-01-09T07:38:56;5.97;;;2.90;;
5285;SDS011;2665;53.112;7.358;2023-01-09T07:41:21;6.17;;;4.37;;
5285;SDS011;2665;53.112;7.358;2023-01-09T07:43:47;7.03;;;3.20;;
5285;SDS011;2665;53.112;7.358;2023-01-09T07:46:12;3.67;;;2.77;;
5285;SDS011;2665;53.112;7.358;2023-01-09T07:48:38;10.13;;;3.43;;
5285;SDS011;2665;53.112;7.358;2023-01-09T07:51:03;8.93;;;3.20;;
5285;SDS011;2665;53.112;7.358;2023-01-09T07:53:30;6.83;;;2.90;;
5285;SDS011;2665;53.112;7.358;2023-01-09T07:55:55;15.33;;;4.50;;
5285;SDS011;2665;53.112;7.358;2023-01-09T07:58:21;3.80;;;3.40;;
5285;SDS011;2665;53.112;7.358;2023-01-09T08:00:48;4.13;;;2.63;;
5285;SDS011;2665;53.112;7.358;2023-01-09T08:03:15;7.50;;;3.17;;
5285;SDS011;2665;53.112;7.358;2023-01-09T08:05:40;8.43;;;3.17;;
5285;SDS011;2665;53.112;7.358;2023-01-09T08:08:06;9.23;;;3.57;;
5285;SDS011;2665;53.112;7.358;2023-01-09T08:10:31;4.50;;;2.80;;
5285;SDS011;2665;53.112;7.358;2023-01-09T08:12:57;4.37;;;2.37;;
5285;SDS011;2665;53.112;7.358;2023-01-09T08:15:22;7.60;;;2.00;;
5285;SDS011;2665;53.112;7.358;2023-01-09T08:17:48;4.30;;;2.00;;
5285;SDS011;2665;53.112;7.358;2023-01-09T08:20:14;3.20;;;2.43;;
5285;SDS011;2665;53.112;7.358;2023-01-09T08:22:41;9.43;;;1.90;;
5285;SDS011;2665;53.112;7.358;2023-01-09T08:25:08;4.27;;;2.40;;
5285;SDS011;2665;53.112;7.358;2023-01-09T08:27:34;9.23;;;2.60;;
5285;SDS011;2665;53.112;7.358;2023-01-09T08:30:00;4.17;;;2.53;;
5285;SDS011;2665;53.112;7.358;2023-01-09T08:32:26;3.10;;;1.87;;
5285;SDS011;2665;53.112;7.358;2023-01-09T08:34:51;4.40;;;2.10;;
5285;SDS011;2665;53.112;7.358;2023-01-09T08:37:17;3.20;;;1.47;;
5285;SDS011;2665;53.112;7.358;2023-01-09T08:39:43;2.80;;;1.70;;
5285;SDS011;2665;53.112;7.358;2023-01-09T08:42:08;5.97;;;2.30;;
5285;SDS011;2665;53.112;7.358;2023-01-09T08:44:53;3.10;;;1.90;;
5285;SDS011;2665;53.112;7.358;2023-01-09T08:47:37;6.33;;;2.40;;
5285;SDS011;2665;53.112;7.358;2023-01-09T08:50:03;2.63;;;1.30;;
5285;SDS011;2665;53.112;7.358;2023-01-09T08:52:29;2.63;;;1.83;;
5285;SDS011;2665;53.112;7.358;2023-01-09T08:54:55;5.60;;;2.23;;
5285;SDS011;2665;53.112;7.358;2023-01-09T08:57:21;5.27;;;2.13;;
5285;SDS011;2665;53.112;7.358;2023-01-09T08:59:47;8.43;;;2.27;;
5285;SDS011;2665;53.112;7.358;2023-01-09T09:02:13;7.13;;;1.83;;
5285;SDS011;2665;53.112;7.358;2023-01-09T09:04:38;4.27;;;1.90;;
5285;SDS011;2665;53.112;7.358;2023-01-09T09:07:04;3.50;;;1.80;;
5285;SDS011;2665;53.112;7.358;2023-01-09T09:09:30;2.20;;;1.40;;
5285;SDS011;2665;53.112;7.358;2023-01-09T09:11:55;3.90;;;2.13;;
5285;SDS011;2665;53.112;7.358;2023-01-09T09:14:21;5.23;;;1.93;;
5285;SDS011;2665;53.112;7.358;2023-01-09T09:17:05;2.97;;;1.57;;
5285;SDS011;2665;53.112;7.358;2023-01-09T09:19:31;2.93;;;1.70;;
5285;SDS011;2665;53.112;7.358;2023-01-09T09:21:56;3.90;;;1.77;;
5285;SDS011;2665;53.112;7.358;2023-01-09T09:24:22;11.67;;;1.83;;
5285;SDS011;2665;53.112;7.358;2023-01-09T09:26:47;2.80;;;2.20;;
5285;SDS011;2665;53.112;7.358;2023-01-09T09:29:13;4.73;;;1.77;;
5285;SDS011;2665;53.112;7.358;2023-01-09T09:31:39;2.90;;;2.00;;
5285;SDS011;2665;53.112;7.358;2023-01-09T09:34:05;4.53;;;2.30;;
5285;SDS011;2665;53.112;7.358;2023-01-09T09:36:31;4.63;;;1.90;;
5285;SDS011;2665;53.112;7.358;2023-01-09T09:38:57;8.57;;;1.83;;
5285;SDS011;2665;53.112;7.358;2023-01-09T09:50:25;2.90;;;2.07;;
5285;SDS011;2665;53.112;7.358;2023-01-09T09:55:47;6.47;;;1.63;;
5285;SDS011;2665;53.112;7.358;2023-01-09T10:01:21;4.33;;;1.30;;
5285;SDS011;2665;53.112;7.358;2023-01-09T10:03:52;6.83;;;1.70;;
5285;SDS011;2665;53.112;7.358;2023-01-09T10:06:27;6.30;;;1.77;;
5285;SDS011;2665;53.112;7.358;2023-01-09T10:14:56;4.60;;;1.90;;
5285;SDS011;2665;53.112;7.358;2023-01-09T10:19:56;2.30;;;1.20;;
5285;SDS011;2665;53.112;7.358;2023-01-09T10:22:47;4.57;;;1.80;;
5285;SDS011;2665;53.112;7.358;2023-01-09T10:38:27;5.40;;;2.03;;
5285;SDS011;2665;53.112;7.358;2023-01-09T10:41:05;3.40;;;1.73;;
5285;SDS011;2665;53.112;7.358;2023-01-09T10:43:40;5.00;;;1.60;;
5285;SDS011;2665;53.112;7.358;2023-01-09T10:46:21;4.37;;;2.00;;
5285;SDS011;2665;53.112;7.358;2023-01-09T10:48:55;3.27;;;1.40;;
5285;SDS011;2665;53.112;7.358;2023-01-09T10:51:26;4.63;;;1.63;;
5285;SDS011;2665;53.112;7.358;2023-01-09T10:53:59;3.50;;;1.40;;
5285;SDS011;2665;53.112;7.358;2023-01-09T10:56:25;3.90;;;2.10;;
5285;SDS011;2665;53.112;7.358;2023-01-09T10:58:53;2.60;;;1.53;;
5285;SDS011;2665;53.112;7.358;2023-01-09T11:01:38;2.93;;;1.67;;
5285;SDS011;2665;53.112;7.358;2023-01-09T11:04:16;4.33;;;1.80;;
5285;SDS011;2665;53.112;7.358;2023-01-09T11:07:05;2.40;;;1.40;;
5285;SDS011;2665;53.112;7.358;2023-01-09T11:12:23;4.10;;;1.43;;
5285;SDS011;2665;53.112;7.358;2023-01-09T11:14:50;7.40;;;1.53;;
5285;SDS011;2665;53.112;7.358;2023-01-09T11:17:25;4.90;;;1.30;;
5285;SDS011;2665;53.112;7.358;2023-01-09T11:20:01;3.50;;;1.50;;
5285;SDS011;2665;53.112;7.358;2023-01-09T11:22:40;2.30;;;1.40;;
5285;SDS011;2665;53.112;7.358;2023-01-09T11:25:12;3.07;;;1.90;;
5285;SDS011;2665;53.112;7.358;2023-01-09T11:27:39;7.80;;;1.50;;
5285;SDS011;2665;53.112;7.358;2023-01-09T11:32:39;1.87;;;0.90;;
5285;SDS011;2665;53.112;7.358;2023-01-09T11:35:06;9.20;;;1.80;;
5285;SDS011;2665;53.112;7.358;2023-01-09T11:37:44;3.63;;;1.27;;
5285;SDS011;2665;53.112;7.358;2023-01-09T11:40:15;7.13;;;1.40;;
5285;SDS011;2665;53.112;7.358;2023-01-09T11:42:59;4.03;;;1.27;;
5285;SDS011;2665;53.112;7.358;2023-01-09T11:45:31;6.77;;;1.40;;
5285;SDS011;2665;53.112;7.358;2023-01-09T11:47:59;2.30;;;1.00;;
5285;SDS011;2665;53.112;7.358;2023-01-09T11:50:28;4.53;;;1.27;;
5285;SDS011;2665;53.112;7.358;2023-01-09T11:55:40;4.90;;;1.43;;
5285;SDS011;2665;53.112;7.358;2023-01-09T11:58:13;3.13;;;1.10;;
5285;SDS011;2665;53.112;7.358;2023-01-09T12:06:20;4.77;;;1.40;;
5285;SDS011;2665;53.112;7.358;2023-01-09T12:09:10;6.00;;;1.70;;
5285;SDS011;2665;53.112;7.358;2023-01-09T12:17:37;4.90;;;1.20;;
5285;SDS011;2665;53.112;7.358;2023-01-09T12:25:36;2.97;;;1.43;;
5285;SDS011;2665;53.112;7.358;2023-01-09T12:38:37;2.80;;;1.60;;
5285;SDS011;2665;53.112;7.358;2023-01-09T12:41:19;8.60;;;2.63;;
5285;SDS011;2665;53.112;7.358;2023-01-09T12:49:18;2.00;;;1.17;;
5285;SDS011;2665;53.112;7.358;2023-01-09T12:52:04;2.20;;;1.17;;
5285;SDS011;2665;53.112;7.358;2023-01-09T12:54:44;2.93;;;1.37;;
5285;SDS011;2665;53.112;7.358;2023-01-09T13:10:55;3.53;;;1.60;;
5285;SDS011;2665;53.112;7.358;2023-01-09T13:13:34;6.03;;;2.27;;
5285;SDS011;2665;53.112;7.358;2023-01-09T13:16:28;5.40;;;2.10;;
5285;SDS011;2665;53.112;7.358;2023-01-09T13:21:37;3.40;;;1.73;;
5285;SDS011;2665;53.112;7.358;2023-01-09T13:24:12;3.97;;;1.93;;
5285;SDS011;2665;53.112;7.358;2023-01-09T13:26:48;2.80;;;1.50;;
5285;SDS011;2665;53.112;7.358;2023-01-09T13:29:22;2.73;;;1.70;;
5285;SDS011;2665;53.112;7.358;2023-01-09T13:31:56;3.10;;;2.10;;
5285;SDS011;2665;53.112;7.358;2023-01-09T13:34:39;4.33;;;1.83;;
5285;SDS011;2665;53.112;7.358;2023-01-09T13:37:22;2.63;;;2.00;;
5285;SDS011;2665;53.112;7.358;2023-01-09T13:42:27;10.80;;;1.70;;
5285;SDS011;2665;53.112;7.358;2023-01-09T13:47:42;4.73;;;1.63;;
5285;SDS011;2665;53.112;7.358;2023-01-09T13:52:34;4.47;;;2.47;;
5285;SDS011;2665;53.112;7.358;2023-01-09T14:03:14;2.53;;;1.53;;
5285;SDS011;2665;53.112;7.358;2023-01-09T14:08:20;3.20;;;2.00;;
5285;SDS011;2665;53.112;7.358;2023-01-09T14:10:48;13.73;;;2.70;;
5285;SDS011;2665;53.112;7.358;2023-01-09T14:13:20;3.17;;;2.00;;
5285;SDS011;2665;53.112;7.358;2023-01-09T14:16:35;2.70;;;2.20;;
5285;SDS011;2665;53.112;7.358;2023-01-09T14:18:45;9.50;;;2.50;;
5285;SDS011;2665;53.112;7.358;2023-01-09T14:21:18;4.40;;;2.23;;
5285;SDS011;2665;53.112;7.358;2023-01-09T14:26:41;2.90;;;1.93;;
5285;SDS011;2665;53.112;7.358;2023-01-09T14:34:46;5.43;;;2.63;;
5285;SDS011;2665;53.112;7.358;2023-01-09T14:37:16;6.43;;;2.07;;
5285;SDS011;2665;53.112;7.358;2023-01-09T14:39:43;4.20;;;2.70;;
5285;SDS011;2665;53.112;7.358;2023-01-09T14:42:10;4.90;;;2.43;;
5285;SDS011;2665;53.112;7.358;2023-01-09T14:45:00;3.00;;;2.10;;
5285;SDS011;2665;53.112;7.358;2023-01-09T14:47:43;5.97;;;2.53;;
5285;SDS011;2665;53.112;7.358;2023-01-09T14:50:33;3.87;;;2.40;;
5285;SDS011;2665;53.112;7.358;2023-01-09T14:53:06;3.83;;;2.23;;
5285;SDS011;2665;53.112;7.358;2023-01-09T14:58:09;3.60;;;2.50;;
5285;SDS011;2665;53.112;7.358;2023-01-09T15:00:35;3.73;;;2.23;;
5285;SDS011;2665;53.112;7.358;2023-01-09T15:03:10;3.57;;;2.90;;
5285;SDS011;2665;53.112;7.358;2023-01-09T15:05:35;5.20;;;2.70;;
5285;SDS011;2665;53.112;7.358;2023-01-09T15:08:01;4.30;;;2.60;;
5285;SDS011;2665;53.112;7.358;2023-01-09T15:10:29;3.67;;;2.70;;
5285;SDS011;2665;53.112;7.358;2023-01-09T15:12:57;5.40;;;2.70;;
5285;SDS011;2665;53.112;7.358;2023-01-09T15:15:27;3.67;;;2.40;;
5285;SDS011;2665;53.112;7.358;2023-01-09T15:18:00;4.50;;;2.90;;
5285;SDS011;2665;53.112;7.358;2023-01-09T15:20:28;5.77;;;3.33;;
5285;SDS011;2665;53.112;7.358;2023-01-09T15:22:56;5.13;;;2.90;;
5285;SDS011;2665;53.112;7.358;2023-01-09T15:27:55;4.37;;;2.77;;
5285;SDS011;2665;53.112;7.358;2023-01-09T15:32:57;4.20;;;2.70;;
5285;SDS011;2665;53.112;7.358;2023-01-09T15:35:24;8.40;;;3.47;;
5285;SDS011;2665;53.112;7.358;2023-01-09T15:37:51;3.70;;;2.73;;
5285;SDS011;2665;53.112;7.358;2023-01-09T15:40:19;4.73;;;3.47;;
5285;SDS011;2665;53.112;7.358;2023-01-09T15:42:49;5.20;;;2.93;;
5285;SDS011;2665;53.112;7.358;2023-01-09T15:50:48;4.47;;;2.90;;
5285;SDS011;2665;53.112;7.358;2023-01-09T15:53:16;7.90;;;3.07;;
5285;SDS011;2665;53.112;7.358;2023-01-09T15:55:44;9.97;;;4.03;;
5285;SDS011;2665;53.112;7.358;2023-01-09T15:58:27;5.50;;;3.30;;
5285;SDS011;2665;53.112;7.358;2023-01-09T16:01:00;5.90;;;3.23;;
5285;SDS011;2665;53.112;7.358;2023-01-09T16:03:28;10.17;;;3.97;;
5285;SDS011;2665;53.112;7.358;2023-01-09T16:05:56;4.47;;;3.10;;
5285;SDS011;2665;53.112;7.358;2023-01-09T16:08:33;4.47;;;2.73;;
5285;SDS011;2665;53.112;7.358;2023-01-09T16:11:03;7.20;;;3.20;;
5285;SDS011;2665;53.112;7.358;2023-01-09T16:13:31;5.03;;;3.60;;
5285;SDS011;2665;53.112;7.358;2023-01-09T16:16:07;4.50;;;2.90;;
5285;SDS011;2665;53.112;7.358;2023-01-09T16:18:34;5.20;;;3.50;;
5285;SDS011;2665;53.112;7.358;2023-01-09T16:23:30;7.47;;;2.83;;
5285;SDS011;2665;53.112;7.358;2023-01-09T16:28:29;4.17;;;3.10;;
5285;SDS011;2665;53.112;7.358;2023-01-09T16:33:24;5.90;;;3.83;;
5285;SDS011;2665;53.112;7.358;2023-01-09T16:35:52;10.07;;;4.97;;
5285;SDS011;2665;53.112;7.358;2023-01-09T16:38:18;6.00;;;3.13;;
5285;SDS011;2665;53.112;7.358;2023-01-09T16:40:58;6.07;;;3.97;;
5285;SDS011;2665;53.112;7.358;2023-01-09T16:43:43;6.40;;;3.03;;
5285;SDS011;2665;53.112;7.358;2023-01-09T16:46:09;5.63;;;3.67;;
5285;SDS011;2665;53.112;7.358;2023-01-09T16:48:35;10.70;;;4.07;;
5285;SDS011;2665;53.112;7.358;2023-01-09T16:51:03;4.93;;;3.30;;
5285;SDS011;2665;53.112;7.358;2023-01-09T16:53:29;12.80;;;3.23;;
5285;SDS011;2665;53.112;7.358;2023-01-09T16:55:56;7.10;;;3.17;;
5285;SDS011;2665;53.112;7.358;2023-01-09T16:58:27;13.20;;;3.40;;
5285;SDS011;2665;53.112;7.358;2023-01-09T17:00:54;9.63;;;3.20;;
5285;SDS011;2665;53.112;7.358;2023-01-09T17:03:20;5.00;;;2.43;;
5285;SDS011;2665;53.112;7.358;2023-01-09T17:05:55;2.90;;;2.20;;
5285;SDS011;2665;53.112;7.358;2023-01-09T17:08:25;2.40;;;1.37;;
5285;SDS011;2665;53.112;7.358;2023-01-09T17:10:53;2.70;;;0.90;;
5285;SDS011;2665;53.112;7.358;2023-01-09T17:13:20;2.87;;;0.90;;
5285;SDS011;2665;53.112;7.358;2023-01-09T17:15:46;2.07;;;1.20;;
5285;SDS011;2665;53.112;7.358;2023-01-09T17:18:13;6.43;;;1.60;;
5285;SDS011;2665;53.112;7.358;2023-01-09T17:20:44;4.43;;;1.60;;
5285;SDS011;2665;53.112;7.358;2023-01-09T17:23:11;2.57;;;1.30;;
5285;SDS011;2665;53.112;7.358;2023-01-09T17:25:37;6.00;;;1.93;;
5285;SDS011;2665;53.112;7.358;2023-01-09T17:28:23;4.80;;;2.30;;
5285;SDS011;2665;53.112;7.358;2023-01-09T17:31:02;3.60;;;1.93;;
5285;SDS011;2665;53.112;7.358;2023-01-09T17:33:31;5.37;;;2.40;;
5285;SDS011;2665;53.112;7.358;2023-01-09T17:35:57;10.00;;;2.27;;
5285;SDS011;2665;53.112;7.358;2023-01-09T17:38:23;9.30;;;1.97;;
5285;SDS011;2665;53.112;7.358;2023-01-09T17:40:49;4.83;;;1.97;;
5285;SDS011;2665;53.112;7.358;2023-01-09T17:43:15;6.30;;;2.20;;
5285;SDS011;2665;53.112;7.358;2023-01-09T17:45:43;5.07;;;1.87;;
5285;SDS011;2665;53.112;7.358;2023-01-09T17:48:16;11.80;;;2.17;;
5285;SDS011;2665;53.112;7.358;2023-01-09T17:50:44;8.33;;;2.30;;
5285;SDS011;2665;53.112;7.358;2023-01-09T17:53:11;3.50;;;1.43;;
5285;SDS011;2665;53.112;7.358;2023-01-09T17:55:38;8.20;;;1.67;;
5285;SDS011;2665;53.112;7.358;2023-01-09T17:58:04;3.90;;;1.10;;
5285;SDS011;2665;53.112;7.358;2023-01-09T18:00:31;4.57;;;2.00;;
5285;SDS011;2665;53.112;7.358;2023-01-09T18:03:00;4.23;;;1.77;;
5285;SDS011;2665;53.112;7.358;2023-01-09T18:05:27;9.80;;;1.90;;
5285;SDS011;2665;53.112;7.358;2023-01-09T18:07:53;4.03;;;1.43;;
5285;SDS011;2665;53.112;7.358;2023-01-09T18:10:20;4.03;;;1.53;;
5285;SDS011;2665;53.112;7.358;2023-01-09T18:12:49;5.40;;;1.50;;
5285;SDS011;2665;53.112;7.358;2023-01-09T18:15:16;2.83;;;1.70;;
5285;SDS011;2665;53.112;7.358;2023-01-09T18:17:42;4.13;;;1.67;;
5285;SDS011;2665;53.112;7.358;2023-01-09T18:20:08;6.37;;;1.23;;